sensor_id;sensor_type;location;lat;lon;timestamp;pressure;altitude;pressure_sealevel;temperature;humidity
48792;BME280;34587;48.816;9.420;2023-03-26T00:00:26;98351.59;;;7.09;91.67
48792;BME280;34587;48.816;9.420;2023-03-26T00:02:52;98342.00;;;7.22;91.55
48792;BME280;34587;48.816;9.420;2023-03-26T00:05:17;98343.91;;;7.05;91.76
48792;BME280;34587;48.816;9.420;2023-03-26T00:07:42;98354.22;;;7.05;92.97
48792;BME280;34587;48.816;9.420;2023-03-26T00:10:08;98345.84;;;6.87;92.49
48792;BME280;34587;48.816;9.420;2023-03-26T00:12:33;98340.84;;;6.72;92.00
48792;BME280;34587;48.816;9.420;2023-03-26T00:14:59;98341.69;;;6.71;92.73
48792;BME280;34587;48.816;9.420;2023-03-26T00:17:24;98342.66;;;6.61;93.20
48792;BME280;34587;48.816;9.420;2023-03-26T00:19:50;98344.47;;;6.53;93.87
48792;BME280;34587;48.816;9.420;2023-03-26T00:22:17;98342.84;;;6.36;94.15
48792;BME280;34587;48.816;9.420;2023-03-26T00:24:43;98341.16;;;6.35;94.53
48792;BME280;34587;48.816;9.420;2023-03-26T00:27:10;98342.88;;;6.33;94.82
48792;BME280;34587;48.816;9.420;2023-03-26T00:29:36;98344.63;;;6.28;94.20
48792;BME280;34587;48.816;9.420;2023-03-26T00:32:04;98348.97;;;6.22;95.21
48792;BME280;34587;48.816;9.420;2023-03-26T00:34:29;98356.84;;;6.05;95.92
48792;BME280;34587;48.816;9.420;2023-03-26T00:36:54;98346.56;;;6.02;95.77
48792;BME280;34587;48.816;9.420;2023-03-26T00:39:26;98354.28;;;5.97;96.29
48792;BME280;34587;48.816;9.420;2023-03-26T00:41:53;98346.59;;;5.89;96.17
48792;BME280;34587;48.816;9.420;2023-03-26T00:44:19;98350.91;;;5.87;96.34
48792;BME280;34587;48.816;9.420;2023-03-26T00:46:45;98343.19;;;5.90;95.77
48792;BME280;34587;48.816;9.420;2023-03-26T00:49:10;98336.34;;;5.83;95.83
48792;BME280;34587;48.816;9.420;2023-03-26T00:51:39;98338.94;;;5.82;96.24
48792;BME280;34587;48.816;9.420;2023-03-26T00:54:05;98336.34;;;5.86;95.42
48792;BME280;34587;48.816;9.420;2023-03-26T00:56:32;98329.56;;;5.76;95.84
48792;BME280;34587;48.816;9.420;2023-03-26T00:58:58;98332.94;;;5.81;95.82
48792;BME280;34587;48.816;9.420;2023-03-26T04:45:30;97958.84;;;6.79;88.60
48792;BME280;34587;48.816;9.420;2023-03-26T04:47:56;97956.03;;;6.94;86.94
48792;BME280;34587;48.816;9.420;2023-03-26T04:50:22;97955.97;;;6.98;87.51
48792;BME280;34587;48.816;9.420;2023-03-26T04:52:48;97949.75;;;7.11;85.78
48792;BME280;34587;48.816;9.420;2023-03-26T04:55:37;97952.34;;;7.11;85.38
48792;BME280;34587;48.816;9.420;2023-03-26T04:58:03;97935.25;;;7.04;85.58
48792;BME280;34587;48.816;9.420;2023-03-26T05:00:30;97934.47;;;7.00;86.00
48792;BME280;34587;48.816;9.420;2023-03-26T05:02:55;97928.59;;;6.93;86.31
48792;BME280;34587;48.816;9.420;2023-03-26T05:05:24;97919.97;;;6.94;86.69
48792;BME280;34587;48.816;9.420;2023-03-26T05:07:50;97912.09;;;7.04;86.11
48792;BME280;34587;48.816;9.420;2023-03-26T05:10:16;97914.00;;;6.91;86.82
48792;BME280;34587;48.816;9.420;2023-03-26T05:12:41;97916.50;;;6.95;86.63
48792;BME280;34587;48.816;9.420;2023-03-26T05:15:07;97921.81;;;6.86;87.11
48792;BME280;34587;48.816;9.420;2023-03-26T05:17:33;97918.53;;;6.78;87.82
48792;BME280;34587;48.816;9.420;2023-03-26T05:19:59;97924.69;;;6.69;87.98
48792;BME280;34587;48.816;9.420;2023-03-26T05:22:24;97922.16;;;6.68;88.53
48792;BME280;34587;48.816;9.420;2023-03-26T05:24:50;97920.50;;;6.64;88.60
48792;BME280;34587;48.816;9.420;2023-03-26T05:27:16;97927.31;;;6.68;87.65
48792;BME280;34587;48.816;9.420;2023-03-26T05:29:44;97922.22;;;6.62;87.30
48792;BME280;34587;48.816;9.420;2023-03-26T05:32:10;97919.56;;;6.66;88.04
48792;BME280;34587;48.816;9.420;2023-03-26T05:34:38;97912.59;;;6.75;88.03
48792;BME280;34587;48.816;9.420;2023-03-26T05:37:03;97902.19;;;6.81;87.43
48792;BME280;34587;48.816;9.420;2023-03-26T05:39:31;97896.19;;;6.80;88.24
48792;BME280;34587;48.816;9.420;2023-03-26T05:41:56;97888.34;;;6.88;87.91
48792;BME280;34587;48.816;9.420;2023-03-26T05:44:21;97884.84;;;6.92;87.45
48792;BME280;34587;48.816;9.420;2023-03-26T05:46:46;97887.25;;;7.00;87.73
48792;BME280;34587;48.816;9.420;2023-03-26T05:49:12;97882.09;;;7.00;87.25
48792;BME280;34587;48.816;9.420;2023-03-26T05:51:37;97875.56;;;7.28;86.24
48792;BME280;34587;48.816;9.420;2023-03-26T05:54:03;97867.03;;;7.26;85.19
48792;BME280;34587;48.816;9.420;2023-03-26T05:56:28;97868.19;;;7.10;86.16
48792;BME280;34587;48.816;9.420;2023-03-26T05:58:54;97863.03;;;7.10;86.04
48792;BME280;34587;48.816;9.420;2023-03-26T06:01:20;97859.78;;;7.02;86.88
48792;BME280;34587;48.816;9.420;2023-03-26T06:03:47;97858.25;;;6.91;87.11
48792;BME280;34587;48.816;9.420;2023-03-26T06:06:14;97856.69;;;6.81;88.57
48792;BME280;34587;48.816;9.420;2023-03-26T06:08:42;97853.13;;;6.88;88.66
48792;BME280;34587;48.816;9.420;2023-03-26T06:11:07;97851.66;;;6.75;89.77
48792;BME280;34587;48.816;9.420;2023-03-26T06:13:34;97851.94;;;6.60;89.56
48792;BME280;34587;48.816;9.420;2023-03-26T06:15:59;97857.88;;;6.63;90.94
48792;BME280;34587;48.816;9.420;2023-03-26T06:18:25;97856.34;;;6.53;92.86
48792;BME280;34587;48.816;9.420;2023-03-26T06:20:51;97858.75;;;6.61;92.42
48792;BME280;34587;48.816;9.420;2023-03-26T06:23:16;97838.94;;;6.66;87.48
48792;BME280;34587;48.816;9.420;2023-03-26T06:25:42;97819.59;;;6.93;81.91
48792;BME280;34587;48.816;9.420;2023-03-26T06:28:09;97810.19;;;6.90;87.40
48792;BME280;34587;48.816;9.420;2023-03-26T06:30:35;97813.59;;;6.92;87.38
48792;BME280;34587;48.816;9.420;2023-03-26T06:33:00;97803.16;;;6.99;86.95
48792;BME280;34587;48.816;9.420;2023-03-26T06:35:25;97789.75;;;6.81;88.52
48792;BME280;34587;48.816;9.420;2023-03-26T06:37:51;97781.03;;;6.88;88.19
48792;BME280;34587;48.816;9.420;2023-03-26T06:40:16;97779.84;;;7.06;87.63
48792;BME280;34587;48.816;9.420;2023-03-26T06:42:41;97782.25;;;7.14;87.33
48792;BME280;34587;48.816;9.420;2023-03-26T06:45:07;97778.78;;;7.15;87.15
48792;BME280;34587;48.816;9.420;2023-03-26T06:47:32;97780.44;;;7.19;88.04
48792;BME280;34587;48.816;9.420;2023-03-26T06:49:58;97771.03;;;7.16;89.01
48792;BME280;34587;48.816;9.420;2023-03-26T06:52:23;97771.81;;;7.21;89.08
48792;BME280;34587;48.816;9.420;2023-03-26T06:54:48;97772.84;;;7.13;89.22
48792;BME280;34587;48.816;9.420;2023-03-26T06:57:13;97774.03;;;6.97;90.33
48792;BME280;34587;48.816;9.420;2023-03-26T06:59:39;97762.91;;;6.94;91.02
48792;BME280;34587;48.816;9.420;2023-03-26T07:02:05;97765.34;;;7.01;91.60
48792;BME280;34587;48.816;9.420;2023-03-26T07:04:30;97767.28;;;6.89;91.95
48792;BME280;34587;48.816;9.420;2023-03-26T07:06:55;97756.19;;;6.87;92.02
48792;BME280;34587;48.816;9.420;2023-03-26T07:09:21;97759.47;;;6.94;92.07
48792;BME280;34587;48.816;9.420;2023-03-26T07:11:46;97756.84;;;6.95;92.43
48792;BME280;34587;48.816;9.420;2023-03-26T07:14:11;97753.34;;;7.00;92.40
48792;BME280;34587;48.816;9.420;2023-03-26T07:16:37;97745.56;;;7.03;91.84
48792;BME280;34587;48.816;9.420;2023-03-26T07:19:02;97744.50;;;7.13;91.75
48792;BME280;34587;48.816;9.420;2023-03-26T07:21:27;97734.34;;;7.07;91.20
48792;BME280;34587;48.816;9.420;2023-03-26T07:23:53;97723.69;;;7.22;91.84
48792;BME280;34587;48.816;9.420;2023-03-26T07:26:39;97715.88;;;7.27;89.78
48792;BME280;34587;48.816;9.420;2023-03-26T07:29:12;97717.31;;;7.40;85.95
48792;BME280;34587;48.816;9.420;2023-03-26T07:31:45;97701.34;;;7.61;84.90
48792;BME280;34587;48.816;9.420;2023-03-26T07:34:35;97696.06;;;7.66;85.09
48792;BME280;34587;48.816;9.420;2023-03-26T07:37:09;97693.44;;;7.69;84.22
48792;BME280;34587;48.816;9.420;2023-03-26T07:39:55;97687.97;;;7.81;82.71
48792;BME280;34587;48.816;9.420;2023-03-26T07:42:37;97684.47;;;7.84;82.35
48792;BME280;34587;48.816;9.420;2023-03-26T07:45:17;97680.72;;;7.95;80.99
48792;BME280;34587;48.816;9.420;2023-03-26T07:47:44;97675.63;;;7.94;80.42
48792;BME280;34587;48.816;9.420;2023-03-26T07:50:15;97676.50;;;7.93;81.54
48792;BME280;34587;48.816;9.420;2023-03-26T07:52:41;97676.75;;;7.82;81.60
48792;BME280;34587;48.816;9.420;2023-03-26T07:55:10;97678.59;;;7.79;82.96
48792;BME280;34587;48.816;9.420;2023-03-26T07:57:39;97682.34;;;7.65;84.62
48792;BME280;34587;48.816;9.420;2023-03-26T08:00:11;97686.66;;;7.65;85.69
48792;BME280;34587;48.816;9.420;2023-03-26T08:05:25;97669.75;;;7.87;82.94
48792;BME280;34587;48.816;9.420;2023-03-26T08:14:19;97650.34;;;7.74;81.91
48792;BME280;34587;48.816;9.420;2023-03-26T08:16:55;97662.78;;;7.57;83.07
48792;BME280;34587;48.816;9.420;2023-03-26T08:21:56;97651.25;;;7.71;83.29
48792;BME280;34587;48.816;9.420;2023-03-26T08:24:36;97653.88;;;7.70;84.46
48792;BME280;34587;48.816;9.420;2023-03-26T08:27:22;97657.47;;;7.63;84.47
48792;BME280;34587;48.816;9.420;2023-03-26T08:30:18;97655.22;;;7.49;87.19
48792;BME280;34587;48.816;9.420;2023-03-26T08:32:51;97643.94;;;7.55;87.86
48792;BME280;34587;48.816;9.420;2023-03-26T08:35:18;97625.78;;;7.59;87.80
48792;BME280;34587;48.816;9.420;2023-03-26T08:37:43;97628.31;;;7.61;87.03
48792;BME280;34587;48.816;9.420;2023-03-26T08:40:10;97632.88;;;7.50;87.28
48792;BME280;34587;48.816;9.420;2023-03-26T08:45:35;97619.34;;;7.41;89.91
48792;BME280;34587;48.816;9.420;2023-03-26T08:51:15;97607.47;;;7.34;90.06
48792;BME280;34587;48.816;9.420;2023-03-26T08:56:51;97608.50;;;7.27;91.28
48792;BME280;34587;48.816;9.420;2023-03-26T09:08:06;97589.47;;;7.67;90.18
48792;BME280;34587;48.816;9.420;2023-03-26T09:19:11;97595.25;;;8.40;88.01
48792;BME280;34587;48.816;9.420;2023-03-26T09:30:32;97581.00;;;9.41;85.91
48792;BME280;34587;48.816;9.420;2023-03-26T09:35:54;97583.03;;;9.31;80.69
48792;BME280;34587;48.816;9.420;2023-03-26T09:38:32;97595.41;;;9.21;82.88
48792;BME280;34587;48.816;9.420;2023-03-26T09:41:16;97589.78;;;9.09;82.74
48792;BME280;34587;48.816;9.420;2023-03-26T09:55:18;97575.22;;;10.58;77.65
48792;BME280;34587;48.816;9.420;2023-03-26T09:58:05;97575.19;;;10.81;74.97
48792;BME280;34587;48.816;9.420;2023-03-26T10:03:29;97567.09;;;10.67;75.76
48792;BME280;34587;48.816;9.420;2023-03-26T10:08:40;97556.03;;;10.85;72.68
48792;BME280;34587;48.816;9.420;2023-03-26T10:11:22;97561.69;;;10.73;75.81
48792;BME280;34587;48.816;9.420;2023-03-26T10:16:40;97565.78;;;11.44;72.77
48792;BME280;34587;48.816;9.420;2023-03-26T10:19:27;97558.34;;;11.15;73.14
48792;BME280;34587;48.816;9.420;2023-03-26T10:25:01;97551.59;;;11.94;70.03
48792;BME280;34587;48.816;9.420;2023-03-26T10:32:46;97547.44;;;11.69;71.29
48792;BME280;34587;48.816;9.420;2023-03-26T10:35:55;97534.38;;;11.50;70.03
48792;BME280;34587;48.816;9.420;2023-03-26T10:41:21;97533.88;;;11.63;68.52
48792;BME280;34587;48.816;9.420;2023-03-26T10:52:08;97529.78;;;14.15;60.66
48792;BME280;34587;48.816;9.420;2023-03-26T10:54:55;97529.66;;;14.34;57.00
48792;BME280;34587;48.816;9.420;2023-03-26T10:57:49;97532.41;;;14.48;57.21
48792;BME280;34587;48.816;9.420;2023-03-26T11:00:24;97530.06;;;13.93;56.64
48792;BME280;34587;48.816;9.420;2023-03-26T11:03:10;97539.69;;;14.08;56.42
48792;BME280;34587;48.816;9.420;2023-03-26T11:05:46;97533.63;;;15.66;53.22
48792;BME280;34587;48.816;9.420;2023-03-26T11:08:39;97517.50;;;19.06;43.90
48792;BME280;34587;48.816;9.420;2023-03-26T11:21:56;97552.34;;;13.81;51.96
48792;BME280;34587;48.816;9.420;2023-03-26T11:24:42;97542.41;;;13.19;53.23
48792;BME280;34587;48.816;9.420;2023-03-26T11:27:22;97545.53;;;13.96;52.46
48792;BME280;34587;48.816;9.420;2023-03-26T11:33:14;97515.38;;;15.94;47.24
48792;BME280;34587;48.816;9.420;2023-03-26T11:35:45;97507.94;;;16.87;46.24
48792;BME280;34587;48.816;9.420;2023-03-26T11:40:53;97488.00;;;19.97;37.33
48792;BME280;34587;48.816;9.420;2023-03-26T11:43:24;97503.03;;;20.85;36.77
48792;BME280;34587;48.816;9.420;2023-03-26T11:45:50;97477.19;;;19.77;35.98
48792;BME280;34587;48.816;9.420;2023-03-26T11:48:24;97492.00;;;19.19;35.80
48792;BME280;34587;48.816;9.420;2023-03-26T11:50:58;97500.25;;;18.03;36.81
48792;BME280;34587;48.816;9.420;2023-03-26T11:53:28;97494.41;;;19.46;36.47
48792;BME280;34587;48.816;9.420;2023-03-26T11:58:34;97491.16;;;19.43;35.56
48792;BME280;34587;48.816;9.420;2023-03-26T12:01:18;97496.59;;;17.28;40.19
48792;BME280;34587;48.816;9.420;2023-03-26T12:04:17;97490.38;;;17.68;39.14
48792;BME280;34587;48.816;9.420;2023-03-26T12:09:17;97484.31;;;17.55;39.61
48792;BME280;34587;48.816;9.420;2023-03-26T12:11:43;97489.38;;;16.22;40.89
48792;BME280;34587;48.816;9.420;2023-03-26T12:14:16;97481.88;;;15.73;40.34
48792;BME280;34587;48.816;9.420;2023-03-26T12:19:38;97487.47;;;14.43;43.12
48792;BME280;34587;48.816;9.420;2023-03-26T12:22:04;97496.91;;;14.46;44.25
48792;BME280;34587;48.816;9.420;2023-03-26T12:24:34;97501.53;;;13.57;49.12
48792;BME280;34587;48.816;9.420;2023-03-26T12:29:58;97516.25;;;12.49;54.17
48792;BME280;34587;48.816;9.420;2023-03-26T12:32:31;97517.88;;;12.33;55.54
48792;BME280;34587;48.816;9.420;2023-03-26T12:35:02;97539.72;;;11.27;59.60
48792;BME280;34587;48.816;9.420;2023-03-26T12:37:36;97524.59;;;10.94;66.20
48792;BME280;34587;48.816;9.420;2023-03-26T12:42:59;97517.34;;;11.45;69.32
48792;BME280;34587;48.816;9.420;2023-03-26T12:45:31;97509.91;;;11.37;63.37
48792;BME280;34587;48.816;9.420;2023-03-26T12:48:01;97502.25;;;11.75;65.33
48792;BME280;34587;48.816;9.420;2023-03-26T12:56:30;97495.63;;;13.53;58.78
48792;BME280;34587;48.816;9.420;2023-03-26T12:59:08;97490.97;;;12.72;59.92
48792;BME280;34587;48.816;9.420;2023-03-26T13:02:00;97495.13;;;12.93;59.44
48792;BME280;34587;48.816;9.420;2023-03-26T13:13:09;97461.91;;;12.26;66.21
48792;BME280;34587;48.816;9.420;2023-03-26T13:15:37;97456.75;;;12.98;63.11
48792;BME280;34587;48.816;9.420;2023-03-26T13:23:23;97447.28;;;13.49;61.54
48792;BME280;34587;48.816;9.420;2023-03-26T13:33:56;97432.00;;;13.92;55.91
48792;BME280;34587;48.816;9.420;2023-03-26T13:41:50;97417.16;;;13.94;55.12
48792;BME280;34587;48.816;9.420;2023-03-26T13:46:52;97425.00;;;13.61;55.48
48792;BME280;34587;48.816;9.420;2023-03-26T13:49:48;97424.78;;;13.48;54.86
48792;BME280;34587;48.816;9.420;2023-03-26T13:52:24;97428.75;;;13.03;56.61
48792;BME280;34587;48.816;9.420;2023-03-26T13:55:00;97413.78;;;12.91;56.05
48792;BME280;34587;48.816;9.420;2023-03-26T13:57:34;97411.56;;;13.35;54.97
48792;BME280;34587;48.816;9.420;2023-03-26T14:00:11;97407.34;;;13.16;55.88
48792;BME280;34587;48.816;9.420;2023-03-26T14:02:42;97413.63;;;13.11;56.34
48792;BME280;34587;48.816;9.420;2023-03-26T14:05:14;97397.72;;;13.35;56.14
48792;BME280;34587;48.816;9.420;2023-03-26T14:08:00;97395.72;;;13.40;55.69
48792;BME280;34587;48.816;9.420;2023-03-26T14:10:31;97392.50;;;13.00;55.84
48792;BME280;34587;48.816;9.420;2023-03-26T14:13:12;97383.88;;;12.82;57.16
48792;BME280;34587;48.816;9.420;2023-03-26T14:15:48;97393.69;;;12.76;55.29
48792;BME280;34587;48.816;9.420;2023-03-26T14:18:34;97381.81;;;12.72;57.07
48792;BME280;34587;48.816;9.420;2023-03-26T14:21:25;97385.00;;;12.77;54.30
48792;BME280;34587;48.816;9.420;2023-03-26T14:26:52;97379.41;;;13.19;56.24
48792;BME280;34587;48.816;9.420;2023-03-26T14:29:50;97383.94;;;12.98;55.13
48792;BME280;34587;48.816;9.420;2023-03-26T14:32:27;97382.81;;;12.50;55.03
48792;BME280;34587;48.816;9.420;2023-03-26T14:38:01;97391.28;;;12.18;56.30
48792;BME280;34587;48.816;9.420;2023-03-26T14:46:09;97403.66;;;12.13;58.32
48792;BME280;34587;48.816;9.420;2023-03-26T14:48:45;97397.44;;;11.77;58.54
48792;BME280;34587;48.816;9.420;2023-03-26T14:51:36;97422.69;;;11.74;60.83
48792;BME280;34587;48.816;9.420;2023-03-26T14:54:18;97450.38;;;11.34;63.62
48792;BME280;34587;48.816;9.420;2023-03-26T14:59:43;97476.53;;;10.18;66.63
48792;BME280;34587;48.816;9.420;2023-03-26T15:08:50;97505.00;;;8.67;77.60
48792;BME280;34587;48.816;9.420;2023-03-26T15:11:18;97493.63;;;8.44;80.56
48792;BME280;34587;48.816;9.420;2023-03-26T15:25:34;97496.56;;;8.62;85.23
48792;BME280;34587;48.816;9.420;2023-03-26T15:34:43;97493.00;;;8.92;78.24
48792;BME280;34587;48.816;9.420;2023-03-26T15:43:17;97497.88;;;9.01;78.12
48792;BME280;34587;48.816;9.420;2023-03-26T15:48:50;97506.31;;;8.52;79.19
48792;BME280;34587;48.816;9.420;2023-03-26T15:54:28;97521.09;;;8.47;80.31
48792;BME280;34587;48.816;9.420;2023-03-26T16:08:09;97515.47;;;8.02;80.70
48792;BME280;34587;48.816;9.420;2023-03-26T16:10:47;97502.81;;;7.94;81.02
48792;BME280;34587;48.816;9.420;2023-03-26T16:15:54;97513.72;;;8.04;82.29
48792;BME280;34587;48.816;9.420;2023-03-26T16:27:01;97519.34;;;8.18;80.15
48792;BME280;34587;48.816;9.420;2023-03-26T16:29:32;97520.56;;;8.05;78.41
48792;BME280;34587;48.816;9.420;2023-03-26T16:32:03;97510.44;;;7.98;77.22
48792;BME280;34587;48.816;9.420;2023-03-26T16:37:36;97522.59;;;7.93;77.37
48792;BME280;34587;48.816;9.420;2023-03-26T16:45:48;97546.81;;;8.19;78.00
48792;BME280;34587;48.816;9.420;2023-03-26T16:48:24;97560.75;;;8.12;77.25
48792;BME280;34587;48.816;9.420;2023-03-26T16:51:09;97558.19;;;8.12;75.65
48792;BME280;34587;48.816;9.420;2023-03-26T16:53:48;97566.22;;;8.03;75.69
48792;BME280;34587;48.816;9.420;2023-03-26T16:56:47;97563.16;;;7.87;75.20
48792;BME280;34587;48.816;9.420;2023-03-26T16:59:38;97576.00;;;7.90;76.12
48792;BME280;34587;48.816;9.420;2023-03-26T17:02:19;97574.44;;;7.83;76.18
48792;BME280;34587;48.816;9.420;2023-03-26T17:04:48;97586.59;;;7.79;77.44
48792;BME280;34587;48.816;9.420;2023-03-26T17:07:16;97581.59;;;7.73;76.97
48792;BME280;34587;48.816;9.420;2023-03-26T17:10:06;97581.81;;;7.64;75.62
48792;BME280;34587;48.816;9.420;2023-03-26T17:12:40;97576.75;;;7.61;77.00
48792;BME280;34587;48.816;9.420;2023-03-26T17:17:54;97583.94;;;7.50;77.78
48792;BME280;34587;48.816;9.420;2023-03-26T17:26:08;97594.13;;;7.53;78.44
48792;BME280;34587;48.816;9.420;2023-03-26T17:31:29;97584.94;;;7.42;80.25
48792;BME280;34587;48.816;9.420;2023-03-26T17:37:10;97585.75;;;7.44;79.06
48792;BME280;34587;48.816;9.420;2023-03-26T17:42:26;97594.59;;;7.34;78.48
48792;BME280;34587;48.816;9.420;2023-03-26T17:44:55;97595.19;;;7.45;78.09
48792;BME280;34587;48.816;9.420;2023-03-26T17:49:57;97589.31;;;7.40;78.21
48792;BME280;34587;48.816;9.420;2023-03-26T17:52:37;97590.81;;;7.47;77.41
48792;BME280;34587;48.816;9.420;2023-03-26T17:55:08;97589.38;;;7.37;78.67
48792;BME280;34587;48.816;9.420;2023-03-26T17:57:42;97589.22;;;7.43;78.35
48792;BME280;34587;48.816;9.420;2023-03-26T18:00:20;97583.41;;;7.35;77.35
48792;BME280;34587;48.816;9.420;2023-03-26T18:03:14;97589.16;;;7.46;77.00
48792;BME280;34587;48.816;9.420;2023-03-26T18:05:42;97590.06;;;7.44;77.90
48792;BME280;34587;48.816;9.420;2023-03-26T18:08:25;97593.34;;;7.49;78.19
48792;BME280;34587;48.816;9.420;2023-03-26T18:14:26;97583.53;;;7.29;78.25
48792;BME280;34587;48.816;9.420;2023-03-26T18:16:57;97590.44;;;7.29;78.73
48792;BME280;34587;48.816;9.420;2023-03-26T18:19:24;97589.53;;;7.31;78.53
48792;BME280;34587;48.816;9.420;2023-03-26T18:21:52;97593.22;;;7.21;79.20
48792;BME280;34587;48.816;9.420;2023-03-26T18:24:25;97589.59;;;7.28;79.28
48792;BME280;34587;48.816;9.420;2023-03-26T18:26:57;97590.41;;;7.30;79.61
48792;BME280;34587;48.816;9.420;2023-03-26T18:29:32;97588.47;;;7.40;79.17
48792;BME280;34587;48.816;9.420;2023-03-26T18:32:02;97584.22;;;7.37;78.56
48792;BME280;34587;48.816;9.420;2023-03-26T18:34:29;97592.91;;;7.33;78.37
48792;BME280;34587;48.816;9.420;2023-03-26T18:37:19;97591.91;;;7.39;78.91
48792;BME280;34587;48.816;9.420;2023-03-26T18:42:54;97599.78;;;7.33;79.92
48792;BME280;34587;48.816;9.420;2023-03-26T18:45:30;97603.03;;;7.41;78.24
48792;BME280;34587;48.816;9.420;2023-03-26T18:48:00;97597.81;;;7.42;77.78
48792;BME280;34587;48.816;9.420;2023-03-26T18:50:33;97596.94;;;7.43;77.39
48792;BME280;34587;48.816;9.420;2023-03-26T18:53:01;97596.19;;;7.40;76.83
48792;BME280;34587;48.816;9.420;2023-03-26T18:55:32;97590.22;;;7.38;76.89
48792;BME280;34587;48.816;9.420;2023-03-26T18:57:58;97586.72;;;7.40;76.33
48792;BME280;34587;48.816;9.420;2023-03-26T19:00:25;97586.06;;;7.32;76.36
48792;BME280;34587;48.816;9.420;2023-03-26T19:03:06;97591.22;;;7.32;76.38
48792;BME280;34587;48.816;9.420;2023-03-26T19:05:33;97587.06;;;7.25;76.33
48792;BME280;34587;48.816;9.420;2023-03-26T19:08:01;97581.91;;;7.27;76.67
48792;BME280;34587;48.816;9.420;2023-03-26T19:10:28;97585.38;;;7.26;76.20
48792;BME280;34587;48.816;9.420;2023-03-26T19:13:00;97584.81;;;7.13;77.12
48792;BME280;34587;48.816;9.420;2023-03-26T19:15:27;97587.53;;;7.05;77.33
48792;BME280;34587;48.816;9.420;2023-03-26T19:18:05;97589.16;;;7.09;76.71
48792;BME280;34587;48.816;9.420;2023-03-26T19:20:42;97584.81;;;7.13;77.40
48792;BME280;34587;48.816;9.420;2023-03-26T19:23:12;97574.56;;;7.10;77.13
48792;BME280;34587;48.816;9.420;2023-03-26T19:25:41;97583.31;;;7.03;77.56
48792;BME280;34587;48.816;9.420;2023-03-26T19:28:29;97576.56;;;6.99;77.43
48792;BME280;34587;48.816;9.420;2023-03-26T19:30:57;97579.13;;;6.99;77.19
48792;BME280;34587;48.816;9.420;2023-03-26T19:33:32;97581.69;;;6.99;77.50
48792;BME280;34587;48.816;9.420;2023-03-26T19:36:04;97578.31;;;6.97;77.81
48792;BME280;34587;48.816;9.420;2023-03-26T19:38:40;97578.31;;;6.97;77.89
48792;BME280;34587;48.816;9.420;2023-03-26T19:41:18;97572.34;;;6.94;76.72
48792;BME280;34587;48.816;9.420;2023-03-26T19:43:48;97576.41;;;7.05;75.99
48792;BME280;34587;48.816;9.420;2023-03-26T19:46:15;97576.56;;;6.99;77.65
48792;BME280;34587;48.816;9.420;2023-03-26T19:48:40;97576.56;;;6.99;76.08
48792;BME280;34587;48.816;9.420;2023-03-26T19:51:20;97570.50;;;7.00;77.69
48792;BME280;34587;48.816;9.420;2023-03-26T19:53:58;97569.72;;;6.98;77.77
48792;BME280;34587;48.816;9.420;2023-03-26T19:56:25;97567.78;;;7.06;77.46
48792;BME280;34587;48.816;9.420;2023-03-26T19:58:52;97565.34;;;7.01;77.57
48792;BME280;34587;48.816;9.420;2023-03-26T20:01:22;97565.66;;;6.87;77.53
48792;BME280;34587;48.816;9.420;2023-03-26T20:03:51;97567.13;;;6.98;76.85
48792;BME280;34587;48.816;9.420;2023-03-26T20:06:19;97570.66;;;6.93;77.84
48792;BME280;34587;48.816;9.420;2023-03-26T20:08:45;97569.22;;;6.82;79.07
48792;BME280;34587;48.816;9.420;2023-03-26T20:11:18;97566.41;;;6.92;78.49
48792;BME280;34587;48.816;9.420;2023-03-26T20:13:44;97565.56;;;6.92;77.62
48792;BME280;34587;48.816;9.420;2023-03-26T20:16:36;97569.91;;;6.88;77.76
48792;BME280;34587;48.816;9.420;2023-03-26T20:19:02;97565.44;;;6.97;78.28
48792;BME280;34587;48.816;9.420;2023-03-26T20:21:29;97562.94;;;6.93;77.06
48792;BME280;34587;48.816;9.420;2023-03-26T20:23:56;97565.44;;;6.97;77.53
48792;BME280;34587;48.816;9.420;2023-03-26T20:26:22;97562.00;;;6.96;77.91
48792;BME280;34587;48.816;9.420;2023-03-26T20:28:48;97564.34;;;7.07;77.15
48792;BME280;34587;48.816;9.420;2023-03-26T20:31:19;97565.22;;;7.06;76.80
48792;BME280;34587;48.816;9.420;2023-03-26T20:33:46;97558.53;;;6.99;78.03
48792;BME280;34587;48.816;9.420;2023-03-26T20:36:12;97553.44;;;6.95;77.83
48792;BME280;34587;48.816;9.420;2023-03-26T20:38:42;97560.50;;;6.87;79.07
48792;BME280;34587;48.816;9.420;2023-03-26T20:41:11;97557.00;;;6.90;79.29
48792;BME280;34587;48.816;9.420;2023-03-26T20:43:37;97552.91;;;6.81;79.04
48792;BME280;34587;48.816;9.420;2023-03-26T20:46:02;97540.13;;;6.77;79.17
48792;BME280;34587;48.816;9.420;2023-03-26T20:48:28;97532.59;;;6.69;79.46
48792;BME280;34587;48.816;9.420;2023-03-26T20:50:54;97550.69;;;6.66;79.48
48792;BME280;34587;48.816;9.420;2023-03-26T20:53:21;97548.28;;;6.58;79.54
48792;BME280;34587;48.816;9.420;2023-03-26T20:55:48;97551.72;;;6.59;79.65
48792;BME280;34587;48.816;9.420;2023-03-26T20:58:17;97551.13;;;6.46;80.11
48792;BME280;34587;48.816;9.420;2023-03-26T21:00:46;97559.00;;;6.38;80.13
48792;BME280;34587;48.816;9.420;2023-03-26T21:03:12;97552.09;;;6.40;80.05
48792;BME280;34587;48.816;9.420;2023-03-26T21:05:39;97551.97;;;6.47;79.85
48792;BME280;34587;48.816;9.420;2023-03-26T21:08:06;97555.47;;;6.44;80.68
48792;BME280;34587;48.816;9.420;2023-03-26T21:10:32;97552.09;;;6.40;80.01
48792;BME280;34587;48.816;9.420;2023-03-26T21:13:00;97562.34;;;6.43;79.58
48792;BME280;34587;48.816;9.420;2023-03-26T21:15:28;97557.19;;;6.43;79.39
48792;BME280;34587;48.816;9.420;2023-03-26T21:17:54;97560.63;;;6.42;79.04
48792;BME280;34587;48.816;9.420;2023-03-26T21:20:21;97561.41;;;6.46;79.75
48792;BME280;34587;48.816;9.420;2023-03-26T21:30:48;97556.78;;;6.62;76.96
48792;BME280;34587;48.816;9.420;2023-03-26T21:33:15;97562.81;;;6.61;77.33
48792;BME280;34587;48.816;9.420;2023-03-26T21:35:42;97567.19;;;6.56;77.55
48792;BME280;34587;48.816;9.420;2023-03-26T21:38:09;97565.47;;;6.58;77.00
48792;BME280;34587;48.816;9.420;2023-03-26T21:40:35;97569.72;;;6.59;77.10
48792;BME280;34587;48.816;9.420;2023-03-26T21:43:00;97560.03;;;6.70;76.67
48792;BME280;34587;48.816;9.420;2023-03-26T21:45:26;97560.09;;;6.67;76.71